Time;durP1;ratioP1;P1;durP2;ratioP2;P2;SDS_P1;SDS_P2;PMS_P1;PMS_P2;Temp;Humidity;BMP_temperature;BMP_pressure;BME280_temperature;BME280_humidity;BME280_pressure;Samples;Min_cycle;Max_cycle;Signal;HPM_P1;HPM_P2
2023/03/26 00:02:22;;;;;;;;;;;8.50;99.90;;;;;;4953680;29;20254;-82
2023/03/26 00:04:52;;;;;;;;;;;8.50;99.90;;;;;;4956496;29;19926;-79
2023/03/26 00:07:18;;;;;;;;;;;8.50;99.90;;;;;;4936111;29;19973;-82
2023/03/26 00:09:47;;;;;;;;;;;8.50;99.90;;;;;;4929708;29;19927;-82
2023/03/26 00:12:14;;;;;;;;;;;8.50;99.90;;;;;;4932953;29;19927;-83
2023/03/26 00:14:41;;;;;;;;;;;8.60;99.90;;;;;;4954492;28;19954;-82
2023/03/26 00:17:07;;;;;;;;;;;8.80;99.90;;;;;;4923599;29;19910;-81
2023/03/26 00:19:35;;;;;;;;;;;8.60;99.90;;;;;;4955042;29;19926;-83
2023/03/26 00:22:03;;;;;;;;;;;8.50;99.90;;;;;;4947050;29;20021;-82
2023/03/26 00:24:30;;;;;;;;;;;8.50;99.90;;;;;;4940318;29;19949;-83
2023/03/26 00:26:59;;;;;;;;;;;8.50;99.90;;;;;;4933335;29;20143;-80
2023/03/26 00:29:27;;;;;;;;;;;8.50;99.90;;;;;;4940378;29;19953;-82
2023/03/26 00:31:54;;;;;;;;;;;8.50;99.90;;;;;;4949453;29;20301;-82
2023/03/26 00:34:21;;;;;;;;;;;8.50;99.90;;;;;;4957661;29;19931;-80
2023/03/26 00:36:53;;;;;;;;;;;8.50;99.90;;;;;;4951095;28;20302;-80
2023/03/26 00:39:20;;;;;;;;;;;8.50;99.90;;;;;;4963761;28;19926;-80
2023/03/26 00:41:47;;;;;;;;;;;8.50;99.90;;;;;;4940766;29;20428;-81
2023/03/26 00:44:16;;;;;;;;;;;8.50;99.90;;;;;;4936195;29;19958;-81
2023/03/26 00:46:43;;;;;;;;;;;8.50;99.90;;;;;;4933131;28;20260;-81
2023/03/26 00:49:13;;;;;;;;;;;8.50;99.90;;;;;;4927526;29;19934;-82
2023/03/26 00:51:40;;;;;;;;;;;8.50;99.90;;;;;;4941654;29;19927;-81
2023/03/26 00:54:08;;;;;;;;;;;8.40;99.90;;;;;;4941697;29;19910;-82
2023/03/26 00:56:35;;;;;;;;;;;8.40;99.90;;;;;;4941447;29;19933;-81
2023/03/26 00:59:02;;;;;;;;;;;8.50;99.90;;;;;;4938289;29;19936;-79
2023/03/26 01:01:31;;;;;;;;;;;8.50;99.90;;;;;;4941450;29;19923;-82
2023/03/26 01:03:59;;;;;;;;;;;8.50;99.90;;;;;;4943138;29;19922;-78
2023/03/26 01:06:31;;;;;;;;;;;8.50;99.90;;;;;;4942433;29;19926;-81
2023/03/26 01:09:03;;;;;;;;;;;8.50;99.90;;;;;;4942040;29;19922;-81
2023/03/26 01:11:31;;;;;;;;;;;8.50;99.90;;;;;;4942951;29;20006;-82
2023/03/26 01:14:00;;;;;;;;;;;8.50;99.90;;;;;;4942009;29;19978;-82
2023/03/26 01:16:28;;;;;;;;;;;8.50;99.90;;;;;;4959529;29;19922;-82
2023/03/26 01:18:57;;;;;;;;;;;8.40;99.90;;;;;;4952219;29;20021;-82
2023/03/26 01:21:27;;;;;;;;;;;8.40;99.90;;;;;;4942334;29;19994;-81
2023/03/26 01:23:59;;;;;;;;;;;8.40;99.90;;;;;;4960190;29;20017;-84
2023/03/26 01:26:59;;;;;;;;;;;8.40;99.90;;;;;;4964028;28;20588;-83
2023/03/26 01:29:30;;;;;;;;;;;8.40;99.90;;;;;;4948983;29;19926;-81
2023/03/26 01:32:01;;;;;;;;;;;8.30;99.90;;;;;;4946023;29;19922;-81
2023/03/26 01:34:32;;;;;;;;;;;8.30;99.90;;;;;;4947987;29;20072;-81
2023/03/26 01:37:04;;;;;;;;;;;8.30;99.90;;;;;;4935738;29;19923;-81
2023/03/26 01:39:37;;;;;;;;;;;8.20;99.90;;;;;;4953340;29;19922;-82
2023/03/26 01:42:07;;;;;;;;;;;8.20;99.90;;;;;;4935364;29;20506;-81
2023/03/26 01:44:36;;;;;;;;;;;8.10;99.90;;;;;;4935692;29;19986;-82
2023/03/26 01:47:03;;;;;;;;;;;8.10;99.90;;;;;;4930444;29;20391;-81
2023/03/26 01:49:30;;;;;;;;;;;8.10;99.90;;;;;;4962695;28;19930;-81
2023/03/26 01:51:58;;;;;;;;;;;8.00;99.90;;;;;;4953648;29;20001;-82
2023/03/26 01:54:26;;;;;;;;;;;8.00;99.90;;;;;;4949675;29;19984;-81
2023/03/26 01:57:01;;;;;;;;;;;7.90;99.90;;;;;;4930705;29;19981;-82
2023/03/26 01:59:43;;;;;;;;;;;7.90;99.90;;;;;;4963361;28;19916;-84
2023/03/26 02:02:12;;;;;;;;;;;7.80;99.90;;;;;;4947823;28;19945;-82
2023/03/26 02:04:42;;;;;;;;;;;7.80;99.90;;;;;;4949199;29;20001;-82
2023/03/26 02:07:12;;;;;;;;;;;7.70;99.90;;;;;;4948470;29;19929;-80
2023/03/26 02:09:44;;;;;;;;;;;7.70;99.90;;;;;;4941658;28;19926;-82
2023/03/26 02:12:13;;;;;;;;;;;7.70;99.90;;;;;;4955822;29;19926;-82
2023/03/26 02:14:41;;;;;;;;;;;7.70;99.90;;;;;;4961989;28;20028;-84
2023/03/26 02:17:09;;;;;;;;;;;7.80;99.90;;;;;;4954733;28;19950;-83
2023/03/26 02:19:40;;;;;;;;;;;7.80;99.90;;;;;;4964717;28;20003;-83
2023/03/26 02:22:10;;;;;;;;;;;7.90;99.90;;;;;;4948083;28;19933;-82
2023/03/26 02:24:38;;;;;;;;;;;8.00;99.90;;;;;;4933353;29;20375;-80
2023/03/26 02:27:06;;;;;;;;;;;8.00;99.90;;;;;;4930796;29;20411;-80
2023/03/26 02:29:38;;;;;;;;;;;8.10;99.90;;;;;;4943587;29;19926;-80
2023/03/26 02:32:12;;;;;;;;;;;8.20;99.90;;;;;;4949915;29;19926;-81
2023/03/26 02:34:42;;;;;;;;;;;8.20;99.90;;;;;;4947055;29;19977;-80
2023/03/26 02:37:10;;;;;;;;;;;8.30;99.90;;;;;;4941550;29;20375;-80
2023/03/26 02:39:39;;;;;;;;;;;8.30;99.90;;;;;;4939828;29;20334;-79
2023/03/26 02:42:17;;;;;;;;;;;8.40;99.90;;;;;;4946855;29;20013;-80
2023/03/26 02:44:49;;;;;;;;;;;8.40;99.90;;;;;;4956580;28;19944;-80
2023/03/26 02:47:19;;;;;;;;;;;8.40;99.90;;;;;;4976627;28;20712;-80
2023/03/26 02:49:52;;;;;;;;;;;8.40;99.90;;;;;;4965679;28;19929;-80
2023/03/26 02:52:36;;;;;;;;;;;8.40;99.90;;;;;;4940978;29;19927;-81
2023/03/26 02:55:03;;;;;;;;;;;8.40;99.90;;;;;;4944073;29;19930;-80
2023/03/26 02:57:31;;;;;;;;;;;8.40;99.90;;;;;;4932512;28;19925;-80
2023/03/26 03:00:07;;;;;;;;;;;8.40;99.90;;;;;;4946244;29;19933;-81
2023/03/26 03:02:57;;;;;;;;;;;8.30;99.90;;;;;;4955064;29;19929;-82
2023/03/26 03:05:27;;;;;;;;;;;8.30;99.90;;;;;;4949663;28;19978;-81
2023/03/26 03:08:17;;;;;;;;;;;8.20;99.90;;;;;;4927933;29;20391;-82
2023/03/26 03:10:59;;;;;;;;;;;8.10;99.90;;;;;;4926351;29;19934;-82
2023/03/26 03:13:46;;;;;;;;;;;8.00;99.90;;;;;;4934003;29;19923;-84
2023/03/26 03:16:20;;;;;;;;;;;7.80;99.90;;;;;;4941116;29;19934;-84
2023/03/26 03:18:52;;;;;;;;;;;7.70;99.90;;;;;;4943625;29;20350;-84
2023/03/26 03:21:20;;;;;;;;;;;7.60;99.90;;;;;;4943970;29;19930;-84
2023/03/26 03:23:47;;;;;;;;;;;7.50;99.90;;;;;;4943932;29;19926;-83
2023/03/26 03:26:16;;;;;;;;;;;7.50;99.90;;;;;;4944325;29;20134;-81
2023/03/26 03:28:48;;;;;;;;;;;7.40;99.90;;;;;;4943789;29;19927;-82
2023/03/26 03:31:16;;;;;;;;;;;7.40;99.90;;;;;;4945645;28;20052;-83
2023/03/26 03:33:45;;;;;;;;;;;7.40;99.90;;;;;;4945045;29;19965;-83
2023/03/26 03:36:16;;;;;;;;;;;7.30;99.90;;;;;;4945639;29;19950;-82
2023/03/26 03:38:44;;;;;;;;;;;7.30;99.90;;;;;;4945211;29;19946;-82
2023/03/26 03:41:17;;;;;;;;;;;7.20;99.90;;;;;;4937638;29;19962;-82
2023/03/26 03:43:44;;;;;;;;;;;7.20;99.90;;;;;;4945155;29;19922;-83
2023/03/26 03:46:15;;;;;;;;;;;7.20;99.90;;;;;;4942926;29;19929;-82
2023/03/26 03:48:48;;;;;;;;;;;7.20;99.90;;;;;;4946700;29;19933;-82
2023/03/26 03:51:20;;;;;;;;;;;7.10;99.90;;;;;;4937726;29;20398;-80
2023/03/26 03:53:51;;;;;;;;;;;7.10;99.90;;;;;;4942775;29;20382;-81
2023/03/26 03:56:30;;;;;;;;;;;7.10;99.90;;;;;;4945079;29;19932;-80
2023/03/26 03:59:23;;;;;;;;;;;7.10;99.90;;;;;;4942624;29;19937;-81
2023/03/26 04:01:50;;;;;;;;;;;7.10;99.90;;;;;;4946846;29;19927;-82
2023/03/26 04:04:33;;;;;;;;;;;7.10;99.90;;;;;;4942367;29;20674;-81
2023/03/26 04:07:05;;;;;;;;;;;7.10;99.90;;;;;;4944980;29;19926;-81
2023/03/26 04:09:40;;;;;;;;;;;7.20;99.90;;;;;;4944531;29;19945;-83
2023/03/26 04:12:14;;;;;;;;;;;7.20;99.90;;;;;;4945496;29;19937;-82
2023/03/26 04:15:01;;;;;;;;;;;7.30;99.90;;;;;;4962078;29;20246;-84
2023/03/26 04:17:29;;;;;;;;;;;7.30;99.90;;;;;;4927340;29;20377;-82
2023/03/26 04:20:04;;;;;;;;;;;7.40;99.90;;;;;;4938438;29;19917;-82
2023/03/26 04:22:33;;;;;;;;;;;7.40;99.90;;;;;;4925294;29;19933;-78
2023/03/26 04:25:04;;;;;;;;;;;7.50;99.90;;;;;;4937375;29;19937;-79
2023/03/26 04:27:45;;;;;;;;;;;7.50;99.90;;;;;;4927860;29;19926;-79
2023/03/26 04:30:19;;;;;;;;;;;7.50;99.90;;;;;;4942231;29;19930;-79
2023/03/26 04:32:50;;;;;;;;;;;7.60;99.90;;;;;;4942340;29;19932;-78
2023/03/26 04:35:18;;;;;;;;;;;7.60;99.90;;;;;;4924598;29;19977;-80
2023/03/26 04:37:51;;;;;;;;;;;7.60;99.90;;;;;;4928922;29;19954;-80
2023/03/26 04:40:34;;;;;;;;;;;7.70;99.90;;;;;;4940678;29;20026;-80
2023/03/26 04:43:11;;;;;;;;;;;7.70;99.90;;;;;;4939186;29;19962;-81
2023/03/26 04:46:09;;;;;;;;;;;7.70;99.90;;;;;;4908575;29;20451;-81
2023/03/26 04:48:43;;;;;;;;;;;7.90;99.90;;;;;;4939250;29;19929;-80
2023/03/26 04:51:16;;;;;;;;;;;7.80;99.90;;;;;;4942621;29;19923;-81
2023/03/26 04:53:51;;;;;;;;;;;7.80;99.90;;;;;;4948279;28;19997;-82
2023/03/26 04:56:32;;;;;;;;;;;7.90;99.90;;;;;;4943106;28;20013;-80
2023/03/26 04:59:18;;;;;;;;;;;7.80;99.90;;;;;;4964446;28;20317;-81
2023/03/26 05:01:45;;;;;;;;;;;7.80;99.90;;;;;;4943623;29;19930;-81
2023/03/26 05:04:14;;;;;;;;;;;7.80;99.90;;;;;;4945377;29;20353;-81
2023/03/26 05:06:43;;;;;;;;;;;7.70;99.90;;;;;;4936078;29;19934;-81
2023/03/26 05:09:20;;;;;;;;;;;7.60;99.90;;;;;;4942664;29;19957;-80
2023/03/26 05:12:07;;;;;;;;;;;7.60;99.90;;;;;;4959695;29;19950;-82
2023/03/26 05:14:46;;;;;;;;;;;7.60;99.90;;;;;;4942779;29;19926;-81
2023/03/26 05:17:20;;;;;;;;;;;7.50;99.90;;;;;;4937381;29;19930;-82
2023/03/26 05:19:48;;;;;;;;;;;7.50;99.90;;;;;;4939775;29;19926;-82
2023/03/26 05:22:17;;;;;;;;;;;7.40;99.90;;;;;;4946673;29;20024;-81
2023/03/26 05:25:04;;;;;;;;;;;7.50;99.90;;;;;;4951116;29;20310;-82
2023/03/26 05:27:33;;;;;;;;;;;7.50;99.90;;;;;;4940532;28;19942;-82
2023/03/26 05:30:00;;;;;;;;;;;7.50;99.90;;;;;;4944807;29;19926;-81
2023/03/26 05:32:28;;;;;;;;;;;7.50;99.90;;;;;;4954384;29;19930;-82
2023/03/26 05:34:55;;;;;;;;;;;7.50;99.90;;;;;;4946823;29;20306;-82
2023/03/26 05:37:24;;;;;;;;;;;7.50;99.90;;;;;;4931744;29;19927;-82
2023/03/26 05:40:00;;;;;;;;;;;7.50;99.90;;;;;;4938145;29;19923;-82
2023/03/26 05:42:53;;;;;;;;;;;7.50;99.90;;;;;;4958640;28;19926;-81
2023/03/26 05:45:30;;;;;;;;;;;7.50;99.90;;;;;;4955180;29;19927;-82
2023/03/26 05:47:59;;;;;;;;;;;7.60;99.90;;;;;;4935151;29;19937;-80
2023/03/26 05:50:26;;;;;;;;;;;7.60;99.90;;;;;;4966420;28;19981;-80
2023/03/26 05:53:00;;;;;;;;;;;7.60;99.90;;;;;;4953619;28;19985;-80
2023/03/26 05:55:54;;;;;;;;;;;7.60;99.90;;;;;;4944008;29;19927;-80
2023/03/26 05:58:40;;;;;;;;;;;7.60;99.90;;;;;;4954921;29;20036;-79
2023/03/26 06:01:24;;;;;;;;;;;7.60;99.90;;;;;;4958237;29;19969;-83
2023/03/26 06:04:16;;;;;;;;;;;7.60;99.90;;;;;;4957186;28;19926;-80
2023/03/26 06:07:13;;;;;;;;;;;7.70;99.90;;;;;;4915139;29;19923;-79
2023/03/26 06:09:45;;;;;;;;;;;7.70;99.90;;;;;;4931674;29;19926;-81
2023/03/26 06:12:13;;;;;;;;;;;7.70;99.90;;;;;;4936617;29;19926;-79
2023/03/26 06:14:42;;;;;;;;;;;7.70;99.90;;;;;;4947056;29;19933;-82
2023/03/26 06:17:17;;;;;;;;;;;7.70;99.90;;;;;;4949163;29;19930;-83
2023/03/26 06:20:14;;;;;;;;;;;7.70;99.90;;;;;;4944508;29;19930;-85
2023/03/26 06:22:45;;;;;;;;;;;7.70;99.90;;;;;;4937671;29;19926;-84
2023/03/26 06:25:32;;;;;;;;;;;7.70;99.90;;;;;;4963539;29;19913;-83
2023/03/26 06:28:14;;;;;;;;;;;7.80;99.90;;;;;;4947750;29;19979;-80
2023/03/26 06:30:51;;;;;;;;;;;7.80;99.90;;;;;;4947405;29;19922;-82
2023/03/26 06:33:52;;;;;;;;;;;7.80;99.90;;;;;;4958990;28;19933;-83
2023/03/26 06:36:19;;;;;;;;;;;7.80;99.90;;;;;;4961201;28;19927;-82
2023/03/26 06:38:49;;;;;;;;;;;7.80;99.90;;;;;;4960883;28;19946;-82
2023/03/26 06:41:18;;;;;;;;;;;7.80;99.90;;;;;;4962582;29;19927;-81
2023/03/26 06:44:14;;;;;;;;;;;7.90;99.90;;;;;;4950562;29;19923;-83
2023/03/26 06:47:14;;;;;;;;;;;7.90;99.90;;;;;;4948702;29;19986;-82
2023/03/26 06:50:05;;;;;;;;;;;8.00;99.90;;;;;;4940533;29;19969;-80
2023/03/26 06:52:53;;;;;;;;;;;8.00;99.90;;;;;;4958335;28;19923;-83
2023/03/26 06:55:43;;;;;;;;;;;8.00;99.90;;;;;;4926544;29;19934;-81
2023/03/26 06:58:34;;;;;;;;;;;8.00;99.90;;;;;;4947617;28;19933;-81
2023/03/26 07:01:20;;;;;;;;;;;8.00;99.90;;;;;;4947927;29;19950;-78
2023/03/26 07:04:10;;;;;;;;;;;7.90;99.90;;;;;;4947272;29;20071;-81
2023/03/26 07:07:13;;;;;;;;;;;8.00;99.90;;;;;;4947233;29;19973;-83
2023/03/26 07:10:01;;;;;;;;;;;8.00;99.90;;;;;;4944934;29;20005;-82
2023/03/26 07:12:49;;;;;;;;;;;8.00;99.90;;;;;;4950385;29;19929;-82
2023/03/26 07:18:21;;;;;;;;;;;8.00;99.90;;;;;;4999057;28;20354;-83
2023/03/26 07:20:49;;;;;;;;;;;8.10;99.90;;;;;;4980331;28;19922;-80
2023/03/26 07:23:20;;;;;;;;;;;8.10;99.90;;;;;;4963943;28;19964;-82
2023/03/26 07:26:22;;;;;;;;;;;8.10;99.90;;;;;;4943255;29;19926;-80
2023/03/26 07:29:01;;;;;;;;;;;8.10;99.90;;;;;;4941916;29;19933;-82
2023/03/26 07:31:50;;;;;;;;;;;8.20;99.90;;;;;;4956856;29;19929;-83
2023/03/26 07:34:46;;;;;;;;;;;8.10;99.90;;;;;;4950912;29;19929;-83
2023/03/26 07:37:29;;;;;;;;;;;8.10;99.90;;;;;;4940241;29;19929;-81
2023/03/26 07:40:27;;;;;;;;;;;8.10;99.90;;;;;;4939674;28;19922;-83
2023/03/26 07:43:25;;;;;;;;;;;8.10;99.90;;;;;;4953347;29;19922;-82
2023/03/26 07:46:11;;;;;;;;;;;8.20;99.90;;;;;;4966420;28;20010;-81
2023/03/26 07:48:53;;;;;;;;;;;8.30;99.90;;;;;;4939822;29;20047;-83
2023/03/26 07:51:41;;;;;;;;;;;8.30;99.90;;;;;;4949917;28;19958;-83
2023/03/26 07:54:34;;;;;;;;;;;8.40;99.90;;;;;;4957801;29;19970;-85
2023/03/26 07:57:46;;;;;;;;;;;8.50;99.90;;;;;;4898410;29;19927;-85
2023/03/26 08:00:26;;;;;;;;;;;8.50;99.90;;;;;;4949741;28;19992;-82
2023/03/26 08:03:16;;;;;;;;;;;8.60;99.90;;;;;;4940179;29;19926;-82
2023/03/26 08:06:05;;;;;;;;;;;8.60;99.90;;;;;;4956583;29;19933;-83
2023/03/26 08:08:45;;;;;;;;;;;8.70;99.90;;;;;;4939125;28;19938;-83
2023/03/26 08:11:34;;;;;;;;;;;8.80;99.90;;;;;;4955615;28;19934;-81
2023/03/26 08:14:05;;;;;;;;;;;8.90;99.90;;;;;;4942657;28;21135;-83
2023/03/26 08:16:36;;;;;;;;;;;9.00;99.90;;;;;;4940164;29;19938;-81
2023/03/26 08:19:06;;;;;;;;;;;9.10;99.90;;;;;;4940979;29;19930;-81
2023/03/26 08:21:36;;;;;;;;;;;9.20;99.90;;;;;;4958685;28;19954;-82
2023/03/26 08:24:08;;;;;;;;;;;9.30;99.90;;;;;;4959723;29;19922;-82
2023/03/26 08:26:37;;;;;;;;;;;9.40;99.90;;;;;;4956730;28;19962;-82
2023/03/26 08:29:10;;;;;;;;;;;9.40;99.90;;;;;;4944514;29;19938;-84
2023/03/26 08:31:38;;;;;;;;;;;9.40;99.90;;;;;;4936440;29;19932;-82
2023/03/26 08:34:05;;;;;;;;;;;9.40;99.90;;;;;;4964520;28;19930;-84
2023/03/26 08:36:32;;;;;;;;;;;9.40;99.90;;;;;;4968189;28;19953;-81
2023/03/26 08:38:58;;;;;;;;;;;9.30;99.90;;;;;;4950143;28;19933;-83
2023/03/26 08:41:48;;;;;;;;;;;9.30;99.90;;;;;;4954319;28;19926;-83
2023/03/26 08:44:36;;;;;;;;;;;9.20;99.90;;;;;;4940348;29;19961;-83
2023/03/26 08:47:27;;;;;;;;;;;9.30;99.90;;;;;;4955180;28;19930;-84
2023/03/26 08:50:00;;;;;;;;;;;9.30;99.90;;;;;;4944197;28;20252;-81
2023/03/26 08:52:42;;;;;;;;;;;9.20;99.90;;;;;;4932889;28;19926;-80
2023/03/26 08:55:26;;;;;;;;;;;9.20;99.90;;;;;;4953330;28;20013;-80
2023/03/26 08:58:09;;;;;;;;;;;9.30;99.90;;;;;;4946218;28;19938;-80
2023/03/26 09:00:39;;;;;;;;;;;9.30;99.90;;;;;;4942246;29;19926;-79
2023/03/26 09:03:29;;;;;;;;;;;9.20;99.90;;;;;;4950579;28;19941;-80
2023/03/26 09:06:15;;;;;;;;;;;9.20;99.90;;;;;;4938003;29;19922;-82
2023/03/26 09:09:03;;;;;;;;;;;9.20;99.90;;;;;;4960810;28;20727;-82
2023/03/26 09:11:50;;;;;;;;;;;9.30;99.90;;;;;;4952874;28;19946;-81
2023/03/26 09:14:36;;;;;;;;;;;9.30;99.90;;;;;;4938111;28;19957;-80
2023/03/26 09:17:21;;;;;;;;;;;9.30;99.90;;;;;;4935056;28;19937;-80
2023/03/26 09:20:18;;;;;;;;;;;9.30;99.90;;;;;;4922840;29;20300;-80
2023/03/26 09:22:57;;;;;;;;;;;9.30;99.90;;;;;;4935120;28;19933;-81
2023/03/26 09:25:40;;;;;;;;;;;9.30;99.90;;;;;;4961496;28;19917;-81
2023/03/26 09:28:37;;;;;;;;;;;9.30;99.90;;;;;;4956431;29;19961;-81
2023/03/26 09:31:19;;;;;;;;;;;9.20;99.90;;;;;;4934970;29;20400;-80
2023/03/26 09:34:03;;;;;;;;;;;9.30;99.90;;;;;;4937190;28;19949;-81
2023/03/26 09:36:46;;;;;;;;;;;9.40;99.90;;;;;;4925020;29;19922;-81
2023/03/26 09:39:16;;;;;;;;;;;9.50;99.90;;;;;;4940740;29;19998;-81
2023/03/26 09:41:49;;;;;;;;;;;9.50;99.90;;;;;;4952478;29;19932;-81
2023/03/26 09:44:28;;;;;;;;;;;9.50;99.90;;;;;;4964817;29;19933;-81
2023/03/26 09:47:02;;;;;;;;;;;9.50;99.90;;;;;;4967729;28;19973;-80
2023/03/26 09:49:38;;;;;;;;;;;9.50;99.90;;;;;;4966491;28;20006;-81
2023/03/26 09:52:15;;;;;;;;;;;9.40;99.90;;;;;;4941788;28;19930;-79
2023/03/26 09:55:00;;;;;;;;;;;9.50;99.90;;;;;;4933589;29;19930;-80
2023/03/26 09:57:37;;;;;;;;;;;9.40;99.90;;;;;;4942350;29;20325;-81
2023/03/26 10:00:09;;;;;;;;;;;9.30;99.90;;;;;;4960374;28;19950;-81
2023/03/26 10:02:58;;;;;;;;;;;9.20;99.90;;;;;;4958232;28;19927;-81
2023/03/26 10:05:30;;;;;;;;;;;9.10;99.90;;;;;;4940087;29;19933;-80
2023/03/26 10:08:11;;;;;;;;;;;9.10;99.90;;;;;;4939441;29;20022;-80
2023/03/26 10:10:41;;;;;;;;;;;9.20;99.90;;;;;;4939024;29;20023;-80
2023/03/26 10:13:23;;;;;;;;;;;9.10;99.90;;;;;;4956217;28;19926;-82
2023/03/26 10:15:57;;;;;;;;;;;9.20;99.90;;;;;;4936766;29;19997;-80
2023/03/26 10:18:31;;;;;;;;;;;9.20;99.90;;;;;;4955565;28;20403;-81
2023/03/26 10:21:02;;;;;;;;;;;9.20;99.90;;;;;;4944767;29;20507;-80
2023/03/26 10:23:37;;;;;;;;;;;9.20;99.90;;;;;;4941970;29;19949;-80
2023/03/26 10:26:10;;;;;;;;;;;9.20;99.90;;;;;;4939222;29;20384;-80
2023/03/26 10:28:43;;;;;;;;;;;9.30;99.90;;;;;;4938641;29;19926;-81
2023/03/26 10:31:26;;;;;;;;;;;9.20;99.90;;;;;;4957370;28;19926;-81
2023/03/26 10:34:00;;;;;;;;;;;9.00;99.90;;;;;;4933882;28;19926;-81
2023/03/26 10:36:29;;;;;;;;;;;8.90;99.90;;;;;;4956458;28;19990;-80
2023/03/26 10:39:09;;;;;;;;;;;8.80;99.90;;;;;;4946310;29;20108;-80
2023/03/26 10:41:41;;;;;;;;;;;8.80;99.90;;;;;;4958209;28;19930;-80
2023/03/26 10:44:33;;;;;;;;;;;8.80;99.90;;;;;;4946513;29;20022;-81
2023/03/26 10:47:07;;;;;;;;;;;8.60;99.90;;;;;;4957225;29;19922;-81
2023/03/26 10:49:58;;;;;;;;;;;8.60;99.90;;;;;;4938066;29;20013;-80
2023/03/26 10:52:28;;;;;;;;;;;8.60;99.90;;;;;;4939817;28;19936;-80
2023/03/26 10:54:57;;;;;;;;;;;8.60;99.90;;;;;;4961466;28;19923;-77
2023/03/26 10:57:29;;;;;;;;;;;8.60;99.90;;;;;;4949570;28;20009;-85
2023/03/26 10:59:57;;;;;;;;;;;8.60;99.90;;;;;;4946604;28;19936;-80
2023/03/26 11:02:27;;;;;;;;;;;8.60;99.90;;;;;;4947819;28;19922;-86
2023/03/26 11:04:56;;;;;;;;;;;8.70;99.90;;;;;;4966174;28;19926;-83
2023/03/26 11:07:27;;;;;;;;;;;8.80;99.90;;;;;;4943225;29;19929;-82
2023/03/26 11:09:59;;;;;;;;;;;8.80;99.90;;;;;;4936052;29;19922;-83
2023/03/26 11:12:29;;;;;;;;;;;8.90;99.90;;;;;;4952525;29;19931;-82
2023/03/26 11:15:02;;;;;;;;;;;8.90;99.90;;;;;;4959122;28;19950;-81
2023/03/26 11:17:34;;;;;;;;;;;9.00;99.90;;;;;;4948970;29;19922;-86
2023/03/26 11:20:03;;;;;;;;;;;9.10;99.90;;;;;;4941554;29;19937;-82
2023/03/26 11:22:32;;;;;;;;;;;9.20;99.90;;;;;;4960900;28;19949;-82
2023/03/26 11:25:08;;;;;;;;;;;9.30;99.90;;;;;;4941435;28;19923;-83
2023/03/26 11:27:42;;;;;;;;;;;9.30;99.90;;;;;;4962975;28;19926;-80
2023/03/26 11:30:17;;;;;;;;;;;9.50;99.90;;;;;;4938207;29;19933;-81
2023/03/26 11:32:45;;;;;;;;;;;9.30;99.90;;;;;;4961051;28;19933;-83
2023/03/26 11:35:17;;;;;;;;;;;9.40;99.90;;;;;;4954775;29;19981;-84
2023/03/26 11:37:46;;;;;;;;;;;9.40;99.90;;;;;;4940843;29;20488;-83
2023/03/26 11:40:15;;;;;;;;;;;9.30;99.90;;;;;;4938539;29;19926;-84
2023/03/26 11:42:43;;;;;;;;;;;9.30;99.90;;;;;;4953964;28;19953;-82
2023/03/26 11:45:15;;;;;;;;;;;9.50;99.90;;;;;;4936153;29;20395;-82
2023/03/26 11:47:44;;;;;;;;;;;9.70;99.90;;;;;;4939088;29;20028;-82
2023/03/26 11:50:15;;;;;;;;;;;9.90;99.90;;;;;;4947773;28;20683;-83
2023/03/26 11:52:42;;;;;;;;;;;9.90;99.90;;;;;;4948479;29;19926;-84
2023/03/26 11:55:11;;;;;;;;;;;10.10;99.90;;;;;;4970595;28;19922;-85
2023/03/26 11:57:41;;;;;;;;;;;10.10;99.90;;;;;;4957116;28;19929;-83
2023/03/26 12:00:17;;;;;;;;;;;10.00;99.90;;;;;;4941558;28;19926;-85
2023/03/26 12:02:45;;;;;;;;;;;10.00;99.90;;;;;;4939526;29;19922;-82
2023/03/26 12:05:16;;;;;;;;;;;10.00;99.90;;;;;;4948575;29;19923;-81
2023/03/26 12:07:49;;;;;;;;;;;10.00;99.90;;;;;;4941275;28;19929;-82
2023/03/26 12:10:24;;;;;;;;;;;10.10;99.90;;;;;;4939992;29;20344;-81
2023/03/26 12:12:54;;;;;;;;;;;10.20;99.90;;;;;;4967092;28;20028;-84
2023/03/26 12:15:22;;;;;;;;;;;10.20;99.90;;;;;;4942917;28;19926;-82
2023/03/26 12:17:52;;;;;;;;;;;10.10;99.90;;;;;;4966199;28;19926;-80
2023/03/26 12:20:30;;;;;;;;;;;10.00;99.90;;;;;;4975639;28;19961;-80
2023/03/26 12:22:58;;;;;;;;;;;10.10;99.90;;;;;;4948254;29;19931;-81
2023/03/26 12:25:29;;;;;;;;;;;10.20;99.90;;;;;;4946513;29;19932;-81
2023/03/26 12:28:01;;;;;;;;;;;10.40;99.90;;;;;;4954193;29;19933;-82
2023/03/26 12:30:32;;;;;;;;;;;10.40;99.90;;;;;;4951751;29;19978;-79
2023/03/26 12:33:02;;;;;;;;;;;10.50;99.90;;;;;;4962101;28;19927;-79
2023/03/26 12:35:30;;;;;;;;;;;10.60;99.90;;;;;;4958686;29;19926;-80
2023/03/26 12:38:14;;;;;;;;;;;10.60;99.90;;;;;;4965388;28;20876;-80
2023/03/26 12:40:42;;;;;;;;;;;10.80;99.90;;;;;;4957584;28;19918;-82
2023/03/26 12:43:20;;;;;;;;;;;10.60;99.90;;;;;;4956466;29;19989;-80
2023/03/26 12:45:50;;;;;;;;;;;10.50;99.90;;;;;;4939568;29;19937;-86
2023/03/26 12:48:17;;;;;;;;;;;10.60;99.90;;;;;;4953214;28;20403;-83
2023/03/26 12:50:51;;;;;;;;;;;10.40;99.90;;;;;;4947932;28;20490;-81
2023/03/26 12:53:27;;;;;;;;;;;10.20;99.90;;;;;;4946585;29;19949;-83
2023/03/26 12:56:00;;;;;;;;;;;10.10;99.90;;;;;;4940325;28;19922;-82
2023/03/26 12:58:38;;;;;;;;;;;10.20;99.90;;;;;;4937721;29;20126;-81
2023/03/26 13:03:40;;;;;;;;;;;10.50;99.90;;;;;;4965386;28;19921;-81
2023/03/26 13:06:15;;;;;;;;;;;10.50;99.90;;;;;;4961568;28;20151;-85
2023/03/26 13:08:52;;;;;;;;;;;10.60;99.90;;;;;;4956825;28;19993;-85
2023/03/26 13:11:22;;;;;;;;;;;10.80;99.90;;;;;;4954937;28;19925;-83
2023/03/26 13:13:55;;;;;;;;;;;11.00;99.90;;;;;;4980915;28;20008;-82
2023/03/26 13:16:26;;;;;;;;;;;11.20;99.90;;;;;;4956119;28;19948;-82
2023/03/26 13:18:56;;;;;;;;;;;11.20;99.90;;;;;;4976296;28;19964;-83
2023/03/26 13:21:31;;;;;;;;;;;11.40;99.90;;;;;;4955738;28;20379;-86
2023/03/26 13:24:02;;;;;;;;;;;11.40;99.90;;;;;;4964390;28;20434;-83
2023/03/26 13:26:37;;;;;;;;;;;11.70;99.90;;;;;;4971345;28;19932;-82
2023/03/26 13:29:08;;;;;;;;;;;11.70;99.90;;;;;;4957326;28;19932;-80
2023/03/26 13:31:39;;;;;;;;;;;11.70;99.90;;;;;;4972953;28;19926;-83
2023/03/26 13:34:12;;;;;;;;;;;11.80;99.90;;;;;;4956126;28;19922;-79
2023/03/26 13:39:14;;;;;;;;;;;12.00;99.90;;;;;;4920933;29;19949;-76
2023/03/26 13:41:51;;;;;;;;;;;12.10;99.90;;;;;;4926414;29;19923;-76
2023/03/26 13:44:26;;;;;;;;;;;12.20;99.90;;;;;;4925878;29;19946;-76
2023/03/26 13:46:54;;;;;;;;;;;12.40;99.90;;;;;;4925476;29;20018;-76
2023/03/26 13:49:25;;;;;;;;;;;12.20;99.90;;;;;;4935097;29;19926;-76
2023/03/26 13:51:56;;;;;;;;;;;12.20;99.90;;;;;;4950773;28;19942;-75
2023/03/26 13:54:26;;;;;;;;;;;12.30;99.90;;;;;;4954381;28;19918;-76
2023/03/26 13:56:55;;;;;;;;;;;12.50;99.90;;;;;;4946171;29;19926;-77
2023/03/26 13:59:25;;;;;;;;;;;12.40;99.90;;;;;;4938780;29;19922;-78
2023/03/26 14:01:54;;;;;;;;;;;12.30;99.90;;;;;;4935160;29;19933;-78
2023/03/26 14:04:25;;;;;;;;;;;12.00;99.90;;;;;;4934812;29;19933;-77
2023/03/26 14:06:56;;;;;;;;;;;11.50;99.90;;;;;;4938931;29;20005;-77
2023/03/26 14:09:26;;;;;;;;;;;11.30;99.90;;;;;;4938253;29;20136;-76
2023/03/26 14:12:01;;;;;;;;;;;11.10;99.90;;;;;;4939576;29;19934;-77
2023/03/26 14:14:31;;;;;;;;;;;11.00;99.90;;;;;;4934965;29;19923;-78
2023/03/26 14:17:00;;;;;;;;;;;11.10;99.90;;;;;;4938252;29;19927;-77
2023/03/26 14:19:49;;;;;;;;;;;11.10;99.90;;;;;;4936592;29;20434;-77
2023/03/26 14:22:22;;;;;;;;;;;11.10;99.90;;;;;;4933371;29;19994;-77
2023/03/26 14:24:58;;;;;;;;;;;11.10;99.90;;;;;;4931492;29;19926;-78
2023/03/26 14:27:32;;;;;;;;;;;11.20;99.90;;;;;;4936278;29;20756;-77
2023/03/26 14:30:05;;;;;;;;;;;11.20;99.90;;;;;;4932825;29;19929;-77
2023/03/26 14:32:39;;;;;;;;;;;11.10;99.90;;;;;;4935287;29;20348;-77
2023/03/26 14:35:24;;;;;;;;;;;11.10;99.90;;;;;;4931446;29;20290;-75
2023/03/26 14:38:06;;;;;;;;;;;11.00;99.90;;;;;;4930833;29;19981;-78
2023/03/26 14:40:46;;;;;;;;;;;10.70;99.90;;;;;;4935163;29;19938;-77
2023/03/26 14:43:28;;;;;;;;;;;10.50;99.90;;;;;;4934023;29;19938;-77
2023/03/26 14:46:10;;;;;;;;;;;10.20;99.90;;;;;;4933946;29;20392;-77
2023/03/26 14:48:46;;;;;;;;;;;9.80;99.90;;;;;;4929462;29;19927;-77
2023/03/26 14:51:20;;;;;;;;;;;9.60;99.90;;;;;;4932966;29;19943;-77
2023/03/26 14:53:49;;;;;;;;;;;9.40;99.90;;;;;;4933411;29;20013;-77
2023/03/26 14:56:31;;;;;;;;;;;9.30;99.90;;;;;;4933188;29;19934;-77
2023/03/26 14:59:13;;;;;;;;;;;9.20;99.90;;;;;;5447017;23;19949;-77
2023/03/26 15:01:52;;;;;;;;;;;9.00;99.90;;;;;;4967993;28;19933;-76
2023/03/26 15:04:37;;;;;;;;;;;8.80;99.90;;;;;;4974980;28;20298;-78
2023/03/26 15:07:19;;;;;;;;;;;8.70;99.90;;;;;;4973623;28;19921;-77
2023/03/26 15:10:10;;;;;;;;;;;8.60;99.90;;;;;;4973918;28;20072;-78
2023/03/26 15:12:48;;;;;;;;;;;8.60;99.90;;;;;;4952007;28;19980;-80
2023/03/26 15:15:39;;;;;;;;;;;8.60;99.90;;;;;;4976222;28;19926;-81
2023/03/26 15:18:20;;;;;;;;;;;8.60;99.90;;;;;;5203270;23;19954;-85
2023/03/26 15:21:04;;;;;;;;;;;8.60;99.90;;;;;;4961314;28;19926;-85
2023/03/26 15:23:46;;;;;;;;;;;8.60;99.90;;;;;;4959468;29;19926;-85
2023/03/26 15:26:36;;;;;;;;;;;8.60;99.90;;;;;;4945781;29;19922;-85